createdAt,value
2023-02-06T00:01:51.773Z,100889.02
2023-02-06T00:04:21.057Z,100890.54
2023-02-06T00:06:52.198Z,100893.92
2023-02-06T00:09:21.118Z,100894.90
2023-02-06T00:11:50.881Z,100893.38
2023-02-06T00:14:20.657Z,100886.27
2023-02-06T00:17:10.380Z,100891.35
2023-02-06T00:19:38.995Z,100893.38
2023-02-06T00:22:09.490Z,100892.52
2023-02-06T00:24:38.072Z,100891.05
2023-02-06T00:27:08.746Z,100893.56
2023-02-06T00:29:38.055Z,100894.59
2023-02-06T00:32:07.442Z,100896.39
2023-02-06T00:34:40.802Z,100900.61
2023-02-06T00:37:11.003Z,100898.98
2023-02-06T00:39:40.587Z,100902.17
2023-02-06T00:42:11.289Z,100899.67
2023-02-06T00:44:42.789Z,100894.14
2023-02-06T00:47:11.351Z,100895.55
2023-02-06T00:49:40.824Z,100904.20
2023-02-06T00:52:10.327Z,100901.05
2023-02-06T00:54:39.571Z,100899.25
2023-02-06T00:57:09.951Z,100905.81
2023-02-06T00:59:39.267Z,100901.23
2023-02-06T01:02:09.517Z,100904.48
2023-02-06T01:04:39.918Z,100903.85
2023-02-06T01:07:10.441Z,100907.30
2023-02-06T01:09:44.256Z,100900.66
2023-02-06T01:12:12.828Z,100903.51
2023-02-06T01:14:43.115Z,100907.39
2023-02-06T01:17:14.245Z,100910.91
2023-02-06T01:19:44.474Z,100910.63
2023-02-06T01:22:15.411Z,100905.31
2023-02-06T01:24:47.794Z,100904.70
2023-02-06T01:27:19.127Z,100906.09
2023-02-06T01:29:48.514Z,100901.86
2023-02-06T01:32:18.020Z,100903.02
2023-02-06T01:34:48.407Z,100904.29
2023-02-06T01:37:17.932Z,100904.54
2023-02-06T01:39:47.997Z,100898.26
2023-02-06T01:42:18.512Z,100898.19
2023-02-06T01:44:48.661Z,100899.27
2023-02-06T01:47:17.589Z,100903.43
2023-02-06T01:49:50.862Z,100903.79
2023-02-06T01:52:24.424Z,100905.60
2023-02-06T01:54:56.967Z,100913.79
2023-02-06T01:57:27.023Z,100911.25
2023-02-06T02:00:00.378Z,100909.32
2023-02-06T02:02:29.941Z,100916.74
2023-02-06T02:05:01.517Z,100915.40
2023-02-06T02:07:47.508Z,100924.01
2023-02-06T02:10:18.257Z,100922.12
2023-02-06T02:12:49.168Z,100920.98
2023-02-06T02:15:18.095Z,100916.83
2023-02-06T02:18:02.905Z,100918.94
2023-02-06T02:20:49.759Z,100922.73
2023-02-06T02:23:43.119Z,100924.42
2023-02-06T02:26:39.797Z,100924.48
2023-02-06T02:29:27.698Z,100931.11
2023-02-06T02:32:03.063Z,100923.11
2023-02-06T02:35:08.609Z,100922.86
2023-02-06T02:37:48.442Z,100926.00
2023-02-06T02:40:38.797Z,100928.73
2023-02-06T02:43:23.866Z,100929.29
2023-02-06T02:45:59.788Z,100934.95
2023-02-06T02:48:31.174Z,100939.91
2023-02-06T02:51:02.803Z,100940.80
2023-02-06T02:53:35.043Z,100937.48
2023-02-06T02:56:16.458Z,100941.89
2023-02-06T02:58:49.488Z,100945.47
2023-02-06T03:01:20.882Z,100947.89
2023-02-06T03:03:50.834Z,100948.98
2023-02-06T03:06:35.154Z,100945.20
2023-02-06T03:09:20.027Z,100944.42
2023-02-06T03:12:04.060Z,100947.30
2023-02-06T03:14:35.047Z,100950.96
2023-02-06T03:17:06.238Z,100949.33
2023-02-06T03:19:39.275Z,100948.00
2023-02-06T03:22:08.249Z,100949.74
2023-02-06T03:24:39.382Z,100950.16
2023-02-06T03:27:13.402Z,100951.00
2023-02-06T03:29:43.566Z,100949.13
2023-02-06T03:32:26.574Z,100949.65
2023-02-06T03:35:17.947Z,100951.70
2023-02-06T03:37:49.396Z,100947.70
2023-02-06T03:40:35.058Z,100947.83
2023-02-06T03:43:05.115Z,100949.23
2023-02-06T03:45:38.966Z,100952.08
2023-02-06T03:48:11.820Z,100950.50
2023-02-06T03:50:43.545Z,100955.89
2023-02-06T03:53:12.979Z,100960.63
2023-02-06T03:55:41.881Z,100962.49
2023-02-06T03:58:13.661Z,100955.40
2023-02-06T04:00:43.348Z,100962.05
2023-02-06T04:03:13.386Z,100970.89
2023-02-06T04:05:44.066Z,100968.48
2023-02-06T04:08:17.401Z,100971.59
2023-02-06T04:10:46.929Z,100973.22
2023-02-06T04:13:17.679Z,100971.84
2023-02-06T04:15:46.139Z,100978.46
2023-02-06T04:18:14.646Z,100982.00
2023-02-06T04:20:48.041Z,100981.89
2023-02-06T04:23:17.269Z,100982.02
2023-02-06T04:25:47.101Z,100984.20
2023-02-06T04:28:17.470Z,100984.34
2023-02-06T04:30:48.752Z,100984.64
2023-02-06T04:33:18.700Z,100979.67
2023-02-06T04:35:49.309Z,100987.23
2023-02-06T04:38:19.477Z,100987.11
2023-02-06T04:40:49.399Z,100986.39
2023-02-06T04:43:19.540Z,100992.13
2023-02-06T04:45:48.380Z,100995.16
2023-02-06T04:48:18.658Z,100999.89
2023-02-06T04:50:51.343Z,101001.23
2023-02-06T04:53:23.008Z,100995.80
2023-02-06T04:55:52.803Z,100995.60
2023-02-06T04:58:21.836Z,100991.99
2023-02-06T05:00:51.371Z,100995.55
2023-02-06T05:03:20.634Z,100998.30
2023-02-06T05:05:53.620Z,100998.59
2023-02-06T05:08:25.488Z,101000.92
2023-02-06T05:10:55.520Z,101000.55
2023-02-06T05:13:26.968Z,101000.36
2023-02-06T05:15:55.798Z,101008.08
2023-02-06T05:18:26.324Z,101015.39
2023-02-06T05:20:55.016Z,101018.84
2023-02-06T05:23:24.171Z,101023.16
2023-02-06T05:25:55.583Z,101029.16
2023-02-06T05:28:25.974Z,101027.73
2023-02-06T05:30:55.516Z,101022.33
2023-02-06T05:33:31.055Z,101034.41
2023-02-06T05:36:06.834Z,101034.80
2023-02-06T05:38:36.668Z,101029.13
2023-02-06T05:41:08.453Z,101031.81
2023-02-06T05:43:38.559Z,101032.23
2023-02-06T05:46:09.236Z,101039.56
2023-02-06T05:48:41.467Z,101041.16
2023-02-06T05:51:11.021Z,101041.20
2023-02-06T05:53:40.260Z,101050.94
2023-02-06T05:56:09.239Z,101053.41
2023-02-06T05:58:43.859Z,101058.60
2023-02-06T06:01:16.047Z,101062.96
2023-02-06T06:03:45.772Z,101061.95
2023-02-06T06:06:16.653Z,101070.61
2023-02-06T06:08:46.842Z,101076.05
2023-02-06T06:11:18.284Z,101075.77
2023-02-06T06:13:47.659Z,101073.20
2023-02-06T09:31:57.579Z,101059.16
2023-02-06T09:34:26.508Z,101056.81
2023-02-06T09:36:57.070Z,101046.42
2023-02-06T09:39:26.049Z,101047.63
2023-02-06T09:41:56.115Z,101048.05
2023-02-06T09:44:27.662Z,101045.52
2023-02-06T09:47:00.986Z,101047.73
2023-02-06T09:49:54.030Z,101045.13
2023-02-06T09:52:47.361Z,101047.88
2023-02-06T09:55:40.628Z,101050.40
2023-02-06T09:58:20.115Z,101050.31
2023-02-06T10:01:01.086Z,101052.06
2023-02-06T10:03:54.809Z,101054.48
2023-02-06T10:06:33.349Z,101050.54
2023-02-06T10:09:18.090Z,101047.92
2023-02-06T10:12:05.426Z,101044.14
2023-02-06T10:14:57.564Z,101042.01
2023-02-06T10:17:37.484Z,101041.88
2023-02-06T10:20:15.480Z,101046.63
2023-02-06T10:23:10.478Z,101046.96
2023-02-06T10:26:12.816Z,101048.08
2023-02-06T10:28:41.248Z,101049.27
2023-02-06T10:31:26.228Z,101053.09
2023-02-06T10:34:16.521Z,101045.98
2023-02-06T10:37:15.577Z,101040.63
2023-02-06T10:40:08.842Z,101051.45
2023-02-06T10:43:18.892Z,101053.98
2023-02-06T10:46:02.628Z,101052.96
2023-02-06T10:48:38.475Z,101051.25
2023-02-06T10:51:18.864Z,101050.60
2023-02-06T10:53:52.263Z,101054.35
2023-02-06T10:56:40.585Z,101055.73
2023-02-06T10:59:30.385Z,101055.95
2023-02-06T11:02:03.189Z,101056.52
2023-02-06T11:04:35.980Z,101045.59
2023-02-06T11:07:09.386Z,101053.01
2023-02-06T11:09:38.115Z,101058.05
2023-02-06T11:12:30.836Z,101052.45
2023-02-06T11:15:01.978Z,101049.73
2023-02-06T11:17:32.135Z,101049.89
2023-02-06T11:20:18.340Z,101047.51
2023-02-06T11:22:52.682Z,101062.53
2023-02-06T11:25:30.558Z,101050.03
2023-02-06T11:28:00.462Z,101059.14
2023-02-06T11:30:31.109Z,101050.45
2023-02-06T11:33:05.272Z,101049.67
2023-02-06T11:35:47.744Z,101053.70
2023-02-06T11:38:22.128Z,101049.35
2023-02-06T11:41:19.467Z,101052.29
2023-02-06T11:43:52.274Z,101054.83
2023-02-06T11:46:24.979Z,101052.38
2023-02-06T11:48:56.293Z,101057.19
2023-02-06T11:51:25.087Z,101056.56
2023-02-06T11:54:03.414Z,101042.05
2023-02-06T11:56:32.262Z,101048.81
2023-02-06T11:59:07.125Z,101048.69
2023-02-06T12:01:42.997Z,101050.02
2023-02-06T12:04:25.999Z,101053.10
2023-02-06T12:07:01.138Z,101054.30
2023-02-06T12:09:30.028Z,101056.16
2023-02-06T12:12:10.053Z,101053.25
2023-02-06T12:14:51.646Z,101053.43
2023-02-06T12:17:25.852Z,101055.98
2023-02-06T12:20:04.469Z,101059.31
2023-02-06T12:22:37.168Z,101061.08
2023-02-06T12:25:06.047Z,101054.30
2023-02-06T12:27:39.536Z,101054.88
2023-02-06T12:30:28.084Z,101058.66
2023-02-06T12:33:23.538Z,101053.98
2023-02-06T12:36:12.844Z,101061.63
2023-02-06T12:39:00.191Z,101069.43
2023-02-06T12:41:57.669Z,101071.67
2023-02-06T12:44:39.766Z,101063.84
2023-02-06T12:47:20.208Z,101068.92
2023-02-06T12:50:02.304Z,101071.38
2023-02-06T12:52:41.010Z,101070.42
2023-02-06T12:55:34.759Z,101074.85
2023-02-06T12:58:03.409Z,101070.39
2023-02-06T13:00:50.068Z,101070.01
2023-02-06T13:03:35.430Z,101066.27
2023-02-06T13:06:22.046Z,101064.14
2023-02-06T13:08:56.205Z,101065.89
2023-02-06T13:11:36.426Z,101069.05
2023-02-06T13:14:27.946Z,101076.62
2023-02-06T13:16:59.460Z,101077.10
2023-02-06T13:19:31.061Z,101076.10
2023-02-06T13:22:20.365Z,101075.66
2023-02-06T13:24:50.104Z,101081.27
2023-02-06T13:27:23.940Z,101079.27
2023-02-06T13:29:54.110Z,101079.41
2023-02-06T13:32:22.952Z,101080.55
2023-02-06T13:35:00.838Z,101086.92
2023-02-06T13:37:46.797Z,101089.85
2023-02-06T13:40:30.607Z,101091.70
2023-02-06T13:43:22.368Z,101096.25
2023-02-06T13:45:57.821Z,101100.67
2023-02-06T13:48:39.172Z,101099.92
2023-02-06T13:51:13.902Z,101095.69
2023-02-06T13:53:45.353Z,101102.83
2023-02-06T13:56:52.277Z,101098.02
2023-02-06T13:59:36.712Z,101100.56
2023-02-06T14:02:12.160Z,101097.27
2023-02-06T14:04:41.943Z,101099.80
2023-02-06T14:07:22.433Z,101100.37
2023-02-06T14:10:37.344Z,101106.52
2023-02-06T14:13:48.281Z,101108.92
2023-02-06T14:16:35.283Z,101104.20
2023-02-06T14:19:18.281Z,101109.60
2023-02-06T14:22:04.416Z,101109.44
2023-02-06T14:25:04.785Z,101112.23
2023-02-06T14:28:04.294Z,101112.54
2023-02-06T14:31:14.182Z,101106.80
2023-02-06T14:34:07.114Z,101106.31
2023-02-06T14:36:51.310Z,101114.56
2023-02-06T14:39:43.167Z,101113.95
2023-02-06T14:42:15.710Z,101122.33
2023-02-06T14:44:45.194Z,101122.68
2023-02-06T14:47:20.815Z,101123.59
2023-02-06T14:49:49.297Z,101127.45
2023-02-06T14:52:21.544Z,101128.61
2023-02-06T14:54:50.359Z,101132.34
2023-02-06T14:57:22.863Z,101134.19
2023-02-06T15:00:02.751Z,101130.08
2023-02-06T15:02:36.214Z,101136.52
2023-02-06T15:05:05.462Z,101149.40
2023-02-06T15:07:36.682Z,101149.58
2023-02-06T15:10:07.806Z,101150.03
2023-02-06T15:12:37.114Z,101153.74
2023-02-06T15:15:15.898Z,101151.73
2023-02-06T15:17:44.401Z,101160.41
2023-02-06T15:20:20.760Z,101162.23
2023-02-06T15:22:49.369Z,101163.35
2023-02-06T15:25:26.960Z,101161.73
2023-02-06T15:28:04.731Z,101168.34
2023-02-06T15:30:34.666Z,101165.23
2023-02-06T15:33:03.594Z,101166.48
2023-02-06T15:35:34.153Z,101168.45
2023-02-06T15:38:07.193Z,101169.16
2023-02-06T15:40:39.143Z,101170.61
2023-02-06T15:43:07.623Z,101172.72
2023-02-06T15:45:39.793Z,101175.91
2023-02-06T15:48:25.879Z,101175.92
2023-02-06T15:51:04.327Z,101178.27
2023-02-06T15:53:34.611Z,101175.46
2023-02-06T15:56:04.975Z,101181.77
2023-02-06T15:58:33.495Z,101182.39
2023-02-06T16:01:02.379Z,101187.34
2023-02-06T16:03:31.478Z,101190.23
2023-02-06T16:06:00.267Z,101195.23
2023-02-06T16:08:32.594Z,101197.36
2023-02-06T16:11:05.873Z,101203.06
2023-02-06T16:13:34.377Z,101200.21
2023-02-06T16:16:11.996Z,101205.18
2023-02-06T16:18:40.607Z,101208.27
2023-02-06T16:21:18.549Z,101208.80
2023-02-06T16:24:00.346Z,101211.76
2023-02-06T16:26:32.791Z,101212.92
2023-02-06T16:29:30.176Z,101217.05
2023-02-06T16:32:03.127Z,101221.61
2023-02-06T16:34:39.161Z,101224.98
2023-02-06T16:37:27.775Z,101224.12
2023-02-06T16:39:56.178Z,101238.41
2023-02-06T16:42:26.561Z,101238.17
2023-02-06T16:44:59.551Z,101243.06
2023-02-06T16:47:28.068Z,101241.17
2023-02-06T16:49:56.544Z,101237.83
2023-02-06T16:52:26.804Z,101240.08
2023-02-06T16:54:56.166Z,101240.77
2023-02-06T16:57:38.345Z,101240.95
2023-02-06T17:00:30.819Z,101232.35
2023-02-06T17:02:59.749Z,101236.88
2023-02-06T17:05:28.492Z,101235.70
2023-02-06T17:07:57.149Z,101229.85
2023-02-06T17:10:26.655Z,101230.20
2023-02-06T17:12:55.188Z,101226.09
2023-02-06T17:15:23.641Z,101224.13
2023-02-06T17:17:54.597Z,101225.02
2023-02-06T17:20:36.498Z,101216.90
2023-02-06T17:23:06.142Z,101222.36
2023-02-06T17:25:36.622Z,101230.73
2023-02-06T17:28:07.679Z,101231.10
2023-02-06T17:30:37.331Z,101230.39
2023-02-06T17:33:06.194Z,101230.35
2023-02-06T17:35:37.039Z,101222.17
2023-02-06T17:38:06.368Z,101223.65
2023-02-06T17:40:36.179Z,101227.94
2023-02-06T17:43:04.965Z,101227.00
2023-02-06T17:45:35.368Z,101222.77
2023-02-06T17:48:04.032Z,101220.46
2023-02-06T17:50:32.945Z,101221.59
2023-02-06T17:53:01.530Z,101222.59
2023-02-06T17:55:29.935Z,101215.98
2023-02-06T17:57:58.399Z,101218.92
2023-02-06T18:00:27.057Z,101215.65
2023-02-06T18:02:56.029Z,101218.34
2023-02-06T18:05:24.899Z,101208.66
2023-02-06T18:07:53.701Z,101212.73
2023-02-06T18:10:22.881Z,101200.48
2023-02-06T18:12:51.724Z,101204.10
2023-02-06T18:15:22.197Z,101203.99
2023-02-06T18:17:50.875Z,101205.67
2023-02-06T18:20:19.270Z,101202.60
2023-02-06T18:22:48.159Z,101207.08
2023-02-06T18:25:16.805Z,101202.34
2023-02-06T18:27:46.118Z,101202.76
2023-02-06T18:30:15.252Z,101204.34
2023-02-06T18:32:43.876Z,101208.96
2023-02-06T18:35:12.483Z,101205.87
2023-02-06T18:37:40.882Z,101208.72
2023-02-06T18:40:09.740Z,101212.84
2023-02-06T18:42:51.622Z,101209.89
2023-02-06T18:45:24.981Z,101208.30
2023-02-06T18:47:53.526Z,101213.30
2023-02-06T18:50:22.198Z,101208.05
2023-02-06T18:52:52.203Z,101203.69
2023-02-06T18:55:21.081Z,101203.47
2023-02-06T18:57:49.935Z,101211.23
2023-02-06T19:00:19.998Z,101209.69
2023-02-06T19:02:48.684Z,101207.73
2023-02-06T19:05:17.157Z,101212.44
2023-02-06T19:07:51.462Z,101213.17
2023-02-06T19:10:20.272Z,101209.86
2023-02-06T19:12:49.260Z,101213.20
2023-02-06T19:15:17.812Z,101209.83
2023-02-06T19:17:46.453Z,101211.04
2023-02-06T19:20:14.975Z,101209.12
2023-02-06T19:22:43.884Z,101214.45
2023-02-06T19:25:14.533Z,101210.36
2023-02-06T19:27:43.816Z,101215.40
2023-02-06T19:30:13.362Z,101217.19
2023-02-06T19:32:42.061Z,101218.52
2023-02-06T19:35:12.125Z,101215.85
2023-02-06T19:37:40.790Z,101214.15
2023-02-06T19:40:09.722Z,101218.53
2023-02-06T19:42:39.664Z,101217.75
2023-02-06T19:45:08.238Z,101216.27
2023-02-06T19:47:36.930Z,101223.29
2023-02-06T19:50:05.958Z,101219.85
2023-02-06T19:52:35.456Z,101227.01
2023-02-06T19:55:04.342Z,101232.05
2023-02-06T19:57:33.033Z,101239.34
2023-02-06T20:00:01.384Z,101235.11
2023-02-06T20:02:31.433Z,101245.37
2023-02-06T20:05:02.154Z,101244.07
2023-02-06T20:07:31.813Z,101250.63
2023-02-06T20:10:00.257Z,101263.42
2023-02-06T20:12:30.611Z,101271.20
2023-02-06T20:15:00.613Z,101272.53
2023-02-06T20:17:29.357Z,101273.30
2023-02-06T20:19:59.901Z,101273.13
2023-02-06T20:22:28.864Z,101277.63
2023-02-06T20:24:57.337Z,101285.63
2023-02-06T20:27:26.588Z,101284.23
2023-02-06T20:29:55.108Z,101288.48
2023-02-06T20:32:24.542Z,101286.07
2023-02-06T20:34:52.825Z,101288.66
2023-02-06T20:37:21.667Z,101289.91
2023-02-06T20:39:49.989Z,101290.35
2023-02-06T20:42:19.586Z,101296.70
2023-02-06T20:44:50.405Z,101299.16
2023-02-06T20:47:18.842Z,101302.54
2023-02-06T20:49:47.273Z,101306.90
2023-02-06T20:52:15.970Z,101309.30
2023-02-06T20:54:44.321Z,101310.68
2023-02-06T20:57:12.692Z,101310.09
2023-02-06T20:59:41.391Z,101314.92
2023-02-06T21:02:11.165Z,101321.48
2023-02-06T21:04:39.801Z,101322.20
2023-02-06T21:07:08.437Z,101319.31
2023-02-06T21:09:36.835Z,101322.48
2023-02-06T21:12:05.354Z,101325.94
2023-02-06T21:14:35.549Z,101328.64
2023-02-06T21:17:04.538Z,101327.50
2023-02-06T21:19:32.804Z,101324.46
2023-02-06T21:22:01.248Z,101326.91
2023-02-06T21:24:30.084Z,101325.00
2023-02-06T21:26:58.803Z,101332.23
2023-02-06T21:29:27.138Z,101335.77
2023-02-06T21:32:11.143Z,101326.96
2023-02-06T21:34:40.887Z,101328.92
2023-02-06T21:37:09.784Z,101330.54
2023-02-06T21:39:39.043Z,101326.34
2023-02-06T21:42:08.485Z,101320.46
2023-02-06T21:44:39.457Z,101319.34
2023-02-06T21:47:10.091Z,101315.36
2023-02-06T21:49:40.528Z,101313.30
2023-02-06T21:52:09.034Z,101319.84
2023-02-06T21:54:38.041Z,101321.77
2023-02-06T21:57:06.550Z,101314.98
2023-02-06T21:59:38.031Z,101320.29
2023-02-06T22:02:07.368Z,101319.34
2023-02-06T22:04:35.632Z,101324.48
2023-02-06T22:07:04.208Z,101325.21
2023-02-06T22:09:32.649Z,101324.17
2023-02-06T22:12:01.812Z,101317.86
2023-02-06T22:14:30.685Z,101319.86
2023-02-06T22:16:59.192Z,101320.13
2023-02-06T22:19:27.650Z,101315.86
2023-02-06T22:21:55.994Z,101317.46
2023-02-06T22:24:24.781Z,101318.98
2023-02-06T22:26:54.573Z,101313.91
2023-02-06T22:29:23.944Z,101311.98
2023-02-06T22:31:52.252Z,101311.88
2023-02-06T22:34:20.940Z,101313.41
2023-02-06T22:36:51.290Z,101319.40
2023-02-06T22:39:19.919Z,101319.94
2023-02-06T22:41:49.391Z,101318.33
2023-02-06T22:44:18.754Z,101317.68
2023-02-06T22:46:52.515Z,101307.33
2023-02-06T22:49:21.352Z,101307.77
2023-02-06T22:51:50.833Z,101307.91
2023-02-06T22:54:19.344Z,101306.36
2023-02-06T22:56:47.966Z,101300.20
2023-02-06T22:59:21.436Z,101294.14
2023-02-06T23:01:50.528Z,101294.67
2023-02-06T23:04:19.732Z,101288.79
2023-02-06T23:06:48.651Z,101285.34
2023-02-06T23:09:22.575Z,101281.55
2023-02-06T23:11:51.938Z,101283.85
2023-02-06T23:14:20.872Z,101283.56
2023-02-06T23:16:51.118Z,101281.34
2023-02-06T23:19:19.846Z,101278.92
2023-02-06T23:21:49.594Z,101271.63
2023-02-06T23:24:18.084Z,101275.29
2023-02-06T23:26:48.245Z,101271.61
2023-02-06T23:29:18.030Z,101271.81
2023-02-06T23:31:47.502Z,101276.83
2023-02-06T23:34:16.784Z,101271.86
2023-02-06T23:36:45.305Z,101272.56
2023-02-06T23:39:13.605Z,101278.33
2023-02-06T23:41:42.734Z,101276.23
2023-02-06T23:44:11.172Z,101272.27
2023-02-06T23:46:39.620Z,101279.73
2023-02-06T23:49:08.544Z,101278.27
2023-02-06T23:51:38.093Z,101281.26
2023-02-06T23:54:07.582Z,101280.63
2023-02-06T23:56:36.877Z,101279.30
2023-02-06T23:59:05.802Z,101273.10
